createdAt,value
2023-05-09T15:41:58.262Z,100757.53
2023-05-09T15:44:28.071Z,100746.94
2023-05-09T15:46:58.673Z,100758.44
2023-05-09T15:49:28.558Z,100741.91
2023-05-09T15:51:58.254Z,100742.81
2023-05-09T15:54:28.857Z,100737.44
2023-05-09T15:57:01.160Z,100734.81
2023-05-09T15:59:30.945Z,100728.59
2023-05-09T16:02:00.988Z,100728.16
2023-05-09T16:04:30.680Z,100718.66
2023-05-09T16:07:01.162Z,100722.34
2023-05-09T16:09:30.913Z,100723.44
2023-05-09T16:12:03.404Z,100726.19
2023-05-09T16:14:33.072Z,100714.50
2023-05-09T16:17:05.490Z,100710.16
2023-05-09T16:19:36.237Z,100708.59
2023-05-09T16:22:06.101Z,100706.94
2023-05-09T16:24:37.447Z,100701.59
2023-05-09T16:27:09.648Z,100692.78
2023-05-09T16:29:39.352Z,100696.56
2023-05-09T16:32:09.541Z,100686.94
2023-05-09T16:34:39.429Z,100703.09
2023-05-09T16:37:09.072Z,100689.03
2023-05-09T16:39:38.888Z,100685.50
2023-05-09T16:42:11.341Z,100690.75
2023-05-09T16:44:41.031Z,100680.19
2023-05-09T16:47:10.677Z,100697.31
2023-05-09T16:49:40.433Z,100688.63
2023-05-09T16:52:10.093Z,100680.41
2023-05-09T16:54:39.770Z,100677.00
2023-05-09T16:57:12.095Z,100675.22
2023-05-09T16:59:41.828Z,100669.00
2023-05-09T17:02:11.524Z,100666.47
2023-05-09T17:04:41.453Z,100656.75
2023-05-09T17:07:12.793Z,100658.63
2023-05-09T17:09:43.314Z,100655.22
2023-05-09T17:12:18.191Z,100665.91
2023-05-09T17:14:48.216Z,100651.75
2023-05-09T17:17:18.498Z,100650.03
2023-05-09T17:19:48.625Z,100658.09
2023-05-09T17:22:18.330Z,100659.81
2023-05-09T17:24:48.137Z,100649.28
2023-05-09T17:27:20.883Z,100649.28
2023-05-09T17:29:50.758Z,100661.84
2023-05-09T17:32:20.610Z,100650.34
2023-05-09T17:34:50.314Z,100644.94
2023-05-09T17:37:20.072Z,100646.75
2023-05-09T17:39:49.787Z,100643.34
2023-05-09T17:42:22.060Z,100649.53
2023-05-09T17:44:51.764Z,100648.03
2023-05-09T17:47:22.026Z,100646.50
2023-05-09T17:49:52.184Z,100641.06
2023-05-09T17:52:21.813Z,100643.78
2023-05-09T17:54:51.561Z,100647.38
2023-05-09T17:57:23.772Z,100640.44
2023-05-09T17:59:53.722Z,100645.88
2023-05-09T18:02:24.292Z,100645.88
2023-05-09T18:04:54.765Z,100648.53
2023-05-09T18:07:24.576Z,100644.16
2023-05-09T18:09:54.216Z,100650.63
2023-05-09T18:12:29.009Z,100649.03
2023-05-09T18:14:58.693Z,100649.13
2023-05-09T18:17:28.642Z,100651.25
2023-05-09T18:19:58.573Z,100649.69
2023-05-09T18:22:28.381Z,100656.66
2023-05-09T18:24:58.151Z,100656.72
2023-05-09T18:27:30.443Z,100652.41
2023-05-09T18:30:00.195Z,100643.63
2023-05-09T18:32:30.032Z,100649.19
2023-05-09T18:34:59.790Z,100650.16
2023-05-09T18:37:29.614Z,100646.72
2023-05-09T18:39:59.397Z,100647.50
2023-05-09T18:42:31.704Z,100646.91
2023-05-09T18:45:04.425Z,100648.75
2023-05-09T18:47:34.201Z,100645.19
2023-05-09T18:50:04.217Z,100646.13
2023-05-09T18:52:34.426Z,100648.75
2023-05-09T18:55:06.022Z,100647.22
2023-05-09T18:57:38.336Z,100649.09
2023-05-09T19:00:09.285Z,100647.41
2023-05-09T19:02:39.026Z,100649.97
2023-05-09T19:05:09.446Z,100656.38
2023-05-09T19:07:39.907Z,100651.06
2023-05-09T19:10:10.574Z,100652.00
2023-05-09T19:12:43.000Z,100645.91
2023-05-09T19:15:13.794Z,100653.03
2023-05-09T19:17:43.660Z,100661.00
2023-05-09T19:20:15.243Z,100655.72
2023-05-09T19:22:48.412Z,100656.75
2023-05-09T19:25:18.760Z,100659.44
2023-05-09T19:27:52.711Z,100651.50
2023-05-09T19:30:23.448Z,100646.34
2023-05-09T19:32:53.104Z,100652.41
2023-05-09T19:35:22.947Z,100646.28
2023-05-09T19:37:52.875Z,100656.09
2023-05-09T19:40:22.735Z,100655.22
2023-05-09T19:42:55.043Z,100651.78
2023-05-09T19:45:25.130Z,100646.56
2023-05-09T19:47:55.068Z,100646.53
2023-05-09T19:50:25.245Z,100651.91
2023-05-09T19:52:58.364Z,100652.88
2023-05-09T19:55:28.715Z,100647.56
2023-05-09T19:58:01.123Z,100652.97
2023-05-09T20:00:31.810Z,100650.28
2023-05-09T20:03:04.135Z,100647.59
2023-05-09T20:05:34.126Z,100652.97
2023-05-09T20:08:04.078Z,100640.56
2023-05-09T20:10:34.349Z,100644.22
2023-05-09T20:13:06.973Z,100647.72
2023-05-09T20:15:36.808Z,100637.09
2023-05-09T20:18:07.405Z,100636.22
2023-05-09T20:20:37.469Z,100633.56
2023-05-09T20:23:07.334Z,100635.25
2023-05-09T20:25:37.188Z,100630.94
2023-05-09T20:28:11.720Z,100630.81
2023-05-09T20:30:41.675Z,100626.47
2023-05-09T20:33:11.444Z,100620.28
2023-05-09T20:35:43.307Z,100622.91
2023-05-09T20:38:13.146Z,100614.09
2023-05-09T20:40:43.219Z,100610.63
2023-05-09T20:43:15.974Z,100606.13
2023-05-09T20:45:45.996Z,100609.72
2023-05-09T20:48:15.790Z,100607.09
2023-05-09T20:50:45.596Z,100604.50
2023-05-09T20:53:15.614Z,100593.94
2023-05-09T20:55:45.473Z,100606.34
2023-05-09T20:58:17.900Z,100601.88
2023-05-09T21:00:48.717Z,100602.75
2023-05-09T21:03:19.076Z,100598.34
2023-05-09T21:05:49.088Z,100598.44
2023-05-09T21:08:19.535Z,100594.06
2023-05-09T21:10:49.376Z,100593.22
2023-05-09T21:13:21.976Z,100595.06
2023-05-09T21:15:52.040Z,100583.53
2023-05-09T21:18:22.048Z,100579.06
2023-05-09T21:20:52.000Z,100576.47
2023-05-09T21:23:22.047Z,100578.13
2023-05-09T21:25:51.863Z,100581.69
2023-05-09T21:28:24.285Z,100571.13
2023-05-09T21:30:54.772Z,100569.47
2023-05-09T21:33:26.218Z,100571.19
2023-05-09T21:35:56.083Z,100566.81
2023-05-09T21:38:25.843Z,100569.53
2023-05-09T21:40:55.830Z,100571.28
2023-05-09T21:43:29.029Z,100559.81
2023-05-09T21:45:59.386Z,100551.91
2023-05-09T21:48:29.378Z,100551.88
2023-05-09T21:50:59.325Z,100551.88
2023-05-09T21:53:29.009Z,100550.19
2023-05-09T21:55:58.956Z,100548.41
2023-05-09T21:58:31.313Z,100542.25
2023-05-09T22:01:01.152Z,100539.63
2023-05-09T22:03:31.007Z,100546.72
2023-05-09T22:06:00.741Z,100538.78
2023-05-09T22:08:30.532Z,100538.81
2023-05-09T22:11:00.516Z,100539.69
2023-05-09T22:13:33.069Z,100537.06
2023-05-09T22:16:04.133Z,100535.28
2023-05-09T22:18:34.218Z,100530.88
2023-05-09T22:21:04.104Z,100537.97
2023-05-09T22:23:34.004Z,100532.66
2023-05-09T22:26:03.766Z,100526.53
2023-05-09T22:28:36.416Z,100532.75
2023-05-09T22:31:08.419Z,100532.69
2023-05-09T22:33:38.305Z,100538.06
2023-05-09T22:36:08.944Z,100537.13
2023-05-09T22:38:38.715Z,100540.66
2023-05-09T22:41:09.462Z,100538.00
2023-05-09T22:43:41.977Z,100554.84
2023-05-09T22:46:11.930Z,100553.94
2023-05-09T22:48:41.828Z,100550.44
2023-05-09T22:51:11.773Z,100554.00
2023-05-09T22:53:41.637Z,100546.91
2023-05-09T22:56:12.908Z,100552.22
2023-05-09T22:58:45.522Z,100543.38
2023-05-09T23:01:15.479Z,100539.00
2023-05-09T23:03:45.812Z,100531.97
2023-05-09T23:06:15.745Z,100534.66
2023-05-09T23:08:45.692Z,100531.09
2023-05-09T23:11:15.682Z,100539.03
2023-05-09T23:13:48.294Z,100536.47
2023-05-09T23:16:18.670Z,100533.78
2023-05-09T23:18:48.647Z,100529.38
2023-05-09T23:21:18.896Z,100524.97
2023-05-09T23:23:48.962Z,100520.59
2023-05-09T23:26:19.003Z,100524.97
2023-05-09T23:28:51.549Z,100529.44
2023-05-09T23:31:21.625Z,100522.34
2023-05-09T23:33:51.846Z,100525.00
2023-05-09T23:36:21.840Z,100526.78
2023-05-09T23:38:51.792Z,100515.34
2023-05-09T23:41:22.094Z,100523.28
2023-05-09T23:43:54.752Z,100518.00
2023-05-09T23:46:24.896Z,100514.50
2023-05-09T23:48:54.938Z,100516.25
2023-05-09T23:51:25.236Z,100525.06
2023-05-09T23:53:55.020Z,100512.75
2023-05-09T23:56:25.428Z,100504.84
2023-05-09T23:58:58.002Z,100504.84
